createdAt,value
2019-04-28T00:01:07.570Z,7.39
2019-04-28T00:03:34.438Z,7.30
2019-04-28T00:06:01.449Z,7.31
2019-04-28T00:08:28.920Z,7.28
2019-04-28T00:10:56.564Z,7.32
2019-04-28T00:13:23.629Z,7.37
2019-04-28T00:15:51.652Z,7.34
2019-04-28T00:18:18.675Z,7.35
2019-04-28T00:20:53.058Z,7.38
2019-04-28T00:23:33.565Z,7.27
2019-04-28T00:26:02.467Z,7.20
2019-04-28T00:28:31.101Z,7.19
2019-04-28T00:30:58.875Z,7.23
2019-04-28T00:33:25.871Z,7.23
2019-04-28T00:35:52.928Z,7.28
2019-04-28T00:38:21.497Z,7.33
2019-04-28T00:40:48.521Z,7.27
2019-04-28T00:43:15.325Z,7.22
2019-04-28T00:45:42.405Z,7.03
2019-04-28T00:48:10.942Z,6.80
2019-04-28T00:50:38.266Z,6.79
2019-04-28T00:53:05.804Z,6.87
2019-04-28T00:55:32.654Z,6.84
2019-04-28T00:58:00.928Z,6.80
2019-04-28T01:00:31.348Z,6.82
2019-04-28T01:02:58.553Z,6.78
2019-04-28T01:05:25.964Z,6.82
2019-04-28T01:07:52.861Z,6.84
2019-04-28T01:10:21.680Z,6.86
2019-04-28T01:12:48.584Z,6.93
2019-04-28T01:15:20.097Z,6.98
2019-04-28T01:17:52.220Z,6.82
2019-04-28T01:20:23.991Z,6.77
2019-04-28T01:22:50.849Z,6.94
2019-04-28T01:25:17.922Z,7.16
2019-04-28T01:27:47.128Z,7.25
2019-04-28T01:30:16.651Z,7.30
2019-04-28T01:32:45.474Z,7.41
2019-04-28T01:35:12.466Z,7.46
2019-04-28T01:37:40.759Z,7.35
2019-04-28T01:40:09.509Z,7.37
2019-04-28T01:42:36.503Z,7.39
2019-04-28T01:45:05.574Z,7.30
2019-04-28T01:47:33.687Z,7.30
2019-04-28T01:50:01.996Z,7.40
2019-04-28T01:52:30.267Z,7.42
2019-04-28T01:54:57.296Z,7.41
2019-04-28T01:57:24.655Z,7.48
2019-04-28T01:59:51.505Z,7.41
2019-04-28T02:02:19.909Z,7.34
2019-04-28T02:04:47.354Z,7.37
2019-04-28T02:07:14.799Z,7.40
2019-04-28T02:09:41.869Z,7.39
2019-04-28T02:12:10.571Z,7.43
2019-04-28T02:14:37.685Z,7.50
2019-04-28T02:17:05.172Z,7.51
2019-04-28T02:19:33.176Z,7.40
2019-04-28T02:22:06.670Z,7.39
2019-04-28T02:24:35.429Z,7.42
2019-04-28T02:27:02.678Z,7.41
2019-04-28T02:29:30.333Z,7.43
2019-04-28T02:32:01.688Z,7.41
2019-04-28T02:34:30.769Z,7.49
2019-04-28T02:36:57.256Z,7.52
2019-04-28T02:39:24.337Z,7.52
2019-04-28T02:41:52.048Z,7.50
2019-04-28T02:44:23.007Z,7.46
2019-04-28T02:46:50.587Z,7.49
2019-04-28T02:49:20.318Z,7.51
2019-04-28T02:52:06.469Z,7.53
2019-04-28T02:54:34.507Z,7.54
2019-04-28T02:57:01.572Z,7.44
2019-04-28T02:59:30.448Z,7.41
2019-04-28T03:01:57.614Z,7.30
2019-04-28T03:04:24.647Z,7.27
2019-04-28T03:06:51.953Z,7.30
2019-04-28T03:09:20.372Z,7.27
2019-04-28T03:11:47.333Z,7.13
2019-04-28T03:14:14.707Z,7.10
2019-04-28T03:16:41.770Z,7.09
2019-04-28T03:19:10.917Z,7.07
2019-04-28T03:21:37.896Z,7.06
2019-04-28T03:24:04.786Z,7.06
2019-04-28T03:26:31.889Z,7.03
2019-04-28T03:29:06.237Z,6.76
2019-04-28T03:32:01.621Z,6.68
2019-04-28T03:34:04.367Z,6.71
2019-04-28T03:36:33.432Z,6.67
2019-04-28T03:39:00.847Z,6.64
2019-04-28T03:41:30.873Z,6.57
2019-04-28T03:43:56.580Z,6.46
2019-04-28T03:46:25.243Z,6.42
2019-04-28T03:48:52.177Z,6.37
2019-04-28T03:51:21.173Z,6.29
2019-04-28T03:53:50.564Z,6.16
2019-04-28T03:56:16.880Z,6.18
2019-04-28T03:58:44.122Z,6.24
2019-04-28T04:01:11.085Z,6.23
2019-04-28T04:03:38.360Z,6.18
2019-04-28T04:06:05.203Z,6.06
2019-04-28T04:08:31.975Z,6.08
2019-04-28T04:11:01.617Z,6.12
2019-04-28T04:13:33.411Z,6.02
2019-04-28T04:16:14.080Z,5.99
2019-04-28T04:18:40.983Z,5.90
2019-04-28T04:21:10.858Z,5.91
2019-04-28T04:23:36.889Z,5.86
2019-04-28T04:26:03.908Z,5.92
2019-04-28T04:28:30.770Z,5.95
2019-04-28T04:31:00.478Z,5.89
2019-04-28T04:33:26.412Z,5.79
2019-04-28T04:35:53.507Z,5.66
2019-04-28T04:38:21.795Z,5.64
2019-04-28T04:40:51.322Z,5.60
2019-04-28T04:43:21.059Z,5.63
2019-04-28T04:45:50.108Z,5.62
2019-04-28T04:48:16.049Z,5.73
2019-04-28T04:50:43.257Z,5.96
2019-04-28T04:53:11.056Z,5.97
2019-04-28T04:55:40.545Z,5.98
2019-04-28T04:58:06.921Z,5.96
2019-04-28T05:00:36.096Z,6.02
2019-04-28T05:03:10.929Z,6.06
2019-04-28T05:05:42.399Z,6.06
2019-04-28T05:08:10.706Z,6.10
2019-04-28T05:10:40.322Z,6.03
2019-04-28T05:13:07.046Z,6.11
2019-04-28T05:15:34.028Z,6.14
2019-04-28T05:18:01.636Z,6.17
2019-04-28T05:20:30.257Z,6.20
2019-04-28T05:23:00.679Z,6.22
2019-04-28T05:25:32.730Z,6.26
2019-04-28T05:28:02.890Z,6.36
2019-04-28T05:30:29.646Z,6.44
2019-04-28T05:32:57.456Z,6.44
2019-04-28T05:35:25.228Z,6.45
2019-04-28T05:37:52.238Z,6.45
2019-04-28T05:40:20.568Z,6.46
2019-04-28T05:43:00.914Z,6.48
2019-04-28T05:45:32.213Z,6.52
2019-04-28T05:47:59.579Z,6.63
2019-04-28T05:50:29.700Z,6.72
2019-04-28T05:53:00.383Z,6.76
2019-04-28T05:55:35.026Z,6.82
2019-04-28T05:58:15.805Z,6.82
2019-04-28T06:00:45.299Z,6.81
2019-04-28T06:03:24.977Z,6.91
2019-04-28T06:05:52.227Z,7.08
2019-04-28T06:08:37.917Z,7.19
2019-04-28T06:11:23.024Z,7.17
2019-04-28T06:13:52.448Z,7.37
2019-04-28T06:16:19.609Z,7.61
2019-04-28T06:18:49.996Z,7.79
2019-04-28T06:21:16.605Z,7.84
2019-04-28T06:23:43.535Z,7.93
2019-04-28T06:26:10.324Z,8.02
2019-04-28T06:28:37.259Z,8.00
2019-04-28T06:31:04.311Z,7.98
2019-04-28T06:33:31.576Z,7.94
2019-04-28T06:35:58.369Z,7.95
2019-04-28T06:38:25.115Z,8.01
2019-04-28T06:40:52.476Z,7.99
2019-04-28T06:43:20.066Z,8.12
2019-04-28T06:45:46.850Z,8.14
2019-04-28T06:48:13.972Z,8.14
2019-04-28T06:50:40.798Z,8.30
2019-04-28T06:53:07.578Z,8.33
2019-04-28T06:55:34.348Z,8.36
2019-04-28T06:58:01.506Z,8.34
2019-04-28T07:00:28.259Z,8.39
2019-04-28T07:02:55.115Z,8.48
2019-04-28T07:05:22.166Z,8.58
2019-04-28T07:07:49.329Z,8.72
2019-04-28T07:10:18.805Z,8.63
2019-04-28T07:12:45.600Z,8.60
2019-04-28T07:15:12.502Z,8.63
2019-04-28T07:17:39.356Z,8.69
2019-04-28T07:20:08.833Z,8.83
2019-04-28T07:22:35.672Z,8.86
2019-04-28T07:25:13.972Z,8.78
2019-04-28T07:27:40.868Z,8.89
2019-04-28T07:30:08.724Z,8.93
2019-04-28T07:32:36.491Z,8.92
2019-04-28T07:35:05.541Z,8.86
2019-04-28T07:37:32.396Z,8.87
2019-04-28T07:39:59.335Z,8.92
2019-04-28T07:42:26.153Z,8.93
2019-04-28T07:44:52.907Z,8.97
2019-04-28T07:47:20.228Z,9.13
2019-04-28T07:49:47.379Z,9.19
2019-04-28T07:52:18.939Z,9.15
2019-04-28T07:54:45.708Z,9.05
2019-04-28T07:57:12.584Z,9.17
2019-04-28T07:59:39.355Z,9.27
2019-04-28T08:02:06.230Z,9.50
2019-04-28T08:04:33.441Z,9.54
2019-04-28T08:07:00.574Z,9.49
2019-04-28T08:09:27.574Z,9.52
2019-04-28T08:11:54.354Z,9.48
2019-04-28T08:14:22.189Z,9.38
2019-04-28T08:16:49.447Z,9.29
2019-04-28T08:19:16.616Z,9.50
2019-04-28T08:21:43.370Z,9.98
2019-04-28T08:24:10.154Z,10.09
2019-04-28T08:26:38.330Z,10.33
2019-04-28T08:29:05.436Z,10.36
2019-04-28T08:31:34.334Z,10.33
2019-04-28T08:34:06.094Z,10.29
2019-04-28T08:36:33.110Z,10.47
2019-04-28T08:39:00.111Z,10.94
2019-04-28T08:41:27.017Z,11.40
2019-04-28T08:43:55.680Z,11.41
2019-04-28T08:46:22.852Z,11.70
2019-04-28T08:48:49.844Z,11.91
2019-04-28T08:51:17.279Z,12.11
2019-04-28T08:53:44.218Z,11.88
2019-04-28T08:56:11.378Z,12.17
2019-04-28T08:58:38.622Z,12.30
2019-04-28T09:01:06.287Z,12.11
2019-04-28T09:03:33.485Z,11.81
2019-04-28T09:06:01.467Z,11.59
2019-04-28T09:08:28.449Z,11.72
2019-04-28T09:10:57.551Z,11.80
2019-04-28T09:13:24.633Z,11.83
2019-04-28T09:15:51.499Z,12.33
2019-04-28T09:18:18.772Z,12.62
2019-04-28T09:20:45.539Z,12.26
2019-04-28T09:23:14.874Z,11.78
2019-04-28T09:25:43.879Z,11.36
2019-04-28T09:28:10.811Z,11.05
2019-04-28T09:30:37.953Z,10.99
2019-04-28T09:33:05.288Z,10.92
2019-04-28T09:35:32.213Z,11.03
2019-04-28T09:37:58.984Z,10.89
2019-04-28T09:40:25.789Z,10.68
2019-04-28T09:43:11.439Z,10.58
2019-04-28T09:45:46.464Z,10.35
2019-04-28T09:48:13.461Z,10.14
2019-04-28T09:50:40.770Z,10.12
2019-04-28T09:53:07.909Z,10.15
2019-04-28T09:55:34.942Z,10.32
2019-04-28T09:58:02.274Z,10.23
2019-04-28T10:00:29.103Z,10.30
2019-04-28T10:02:56.130Z,10.47
2019-04-28T10:05:23.458Z,10.54
2019-04-28T10:07:50.308Z,10.64
2019-04-28T10:10:17.929Z,10.65
2019-04-28T10:12:45.117Z,10.75
2019-04-28T10:15:15.422Z,10.91
2019-04-28T10:17:43.211Z,11.19
2019-04-28T10:20:12.644Z,11.32
2019-04-28T10:22:41.965Z,11.49
2019-04-28T10:25:09.686Z,11.61
2019-04-28T10:27:36.690Z,12.19
2019-04-28T10:30:07.967Z,13.09
2019-04-28T10:32:35.924Z,13.41
2019-04-28T10:35:05.380Z,13.42
2019-04-28T10:37:32.721Z,13.34
2019-04-28T10:40:04.790Z,13.09
2019-04-28T10:42:31.657Z,13.06
2019-04-28T10:44:59.530Z,13.04
2019-04-28T10:47:27.888Z,13.67
2019-04-28T10:49:56.267Z,14.17
2019-04-28T10:52:24.969Z,14.81
2019-04-28T10:54:52.422Z,15.10
2019-04-28T10:57:19.300Z,15.01
2019-04-28T10:59:47.233Z,14.57
2019-04-28T11:02:14.215Z,13.81
2019-04-28T11:04:53.312Z,13.21
2019-04-28T11:07:20.972Z,12.39
2019-04-28T11:09:50.640Z,12.05
2019-04-28T11:12:19.503Z,11.93
2019-04-28T11:14:48.160Z,12.27
2019-04-28T11:17:15.999Z,12.42
2019-04-28T11:19:42.877Z,12.94
2019-04-28T11:22:10.614Z,13.11
2019-04-28T11:24:37.759Z,12.72
2019-04-28T11:27:05.680Z,12.34
2019-04-28T11:29:33.272Z,12.36
2019-04-28T11:32:02.035Z,12.70
2019-04-28T11:34:41.277Z,13.20
2019-04-28T11:37:10.405Z,13.42
2019-04-28T11:39:43.289Z,13.27
2019-04-28T11:42:11.356Z,12.85
2019-04-28T11:44:38.858Z,12.78
2019-04-28T11:47:09.237Z,12.48
2019-04-28T11:49:37.309Z,12.23
2019-04-28T11:52:06.970Z,12.23
2019-04-28T11:54:33.903Z,12.21
2019-04-28T11:57:01.011Z,12.19
2019-04-28T11:59:28.215Z,11.98
2019-04-28T12:01:56.245Z,11.96
2019-04-28T12:04:23.662Z,11.94
2019-04-28T12:06:50.536Z,11.92
2019-04-28T12:09:22.073Z,11.99
2019-04-28T12:11:54.422Z,11.92
2019-04-28T12:14:36.933Z,11.83
2019-04-28T12:17:10.884Z,12.04
2019-04-28T12:19:40.511Z,12.18
2019-04-28T12:22:07.653Z,12.51
2019-04-28T12:24:34.543Z,12.83
2019-04-28T12:27:01.923Z,13.01
2019-04-28T12:29:28.838Z,13.36
2019-04-28T12:31:55.685Z,14.00
2019-04-28T12:34:22.564Z,16.34
2019-04-28T12:36:49.363Z,17.57
2019-04-28T12:39:16.906Z,18.66
2019-04-28T12:41:43.848Z,19.01
2019-04-28T12:44:10.668Z,18.28
2019-04-28T12:46:37.744Z,18.57
2019-04-28T12:49:07.545Z,18.98
2019-04-28T12:51:34.402Z,19.20
2019-04-28T12:54:03.101Z,19.54
2019-04-28T12:56:30.732Z,19.79
2019-04-28T12:59:01.340Z,19.87
2019-04-28T13:01:30.241Z,20.03
2019-04-28T13:04:02.803Z,20.15
2019-04-28T13:06:29.999Z,20.46
2019-04-28T13:08:57.177Z,20.55
2019-04-28T13:11:24.159Z,20.41
2019-04-28T13:13:51.076Z,20.65
2019-04-28T13:16:18.068Z,19.78
2019-04-28T13:18:45.300Z,18.59
2019-04-28T13:21:12.327Z,17.05
2019-04-28T13:23:39.227Z,17.78
2019-04-28T13:26:06.229Z,18.68
2019-04-28T13:28:33.010Z,17.28
2019-04-28T13:30:59.905Z,18.37
2019-04-28T13:33:26.701Z,19.04
2019-04-28T13:35:53.537Z,19.62
2019-04-28T13:38:20.368Z,20.00
2019-04-28T13:40:47.106Z,20.43
2019-04-28T13:43:13.956Z,21.04
2019-04-28T13:45:40.933Z,21.06
2019-04-28T13:48:07.935Z,20.44
2019-04-28T13:50:36.507Z,19.79
2019-04-28T13:53:05.219Z,19.49
2019-04-28T13:55:32.324Z,19.46
2019-04-28T13:58:01.328Z,19.25
2019-04-28T14:00:33.193Z,20.34
2019-04-28T14:03:02.334Z,19.84
2019-04-28T14:05:32.902Z,19.61
2019-04-28T14:07:59.868Z,20.41
2019-04-28T14:10:26.997Z,21.03
2019-04-28T14:12:53.887Z,20.42
2019-04-28T14:15:21.234Z,19.10
2019-04-28T14:17:48.219Z,17.96
2019-04-28T14:20:15.715Z,16.97
2019-04-28T14:22:43.146Z,16.94
2019-04-28T14:25:10.580Z,18.07
2019-04-28T14:27:37.472Z,18.97
2019-04-28T14:30:06.661Z,19.30
2019-04-28T14:32:34.085Z,19.29
2019-04-28T14:35:01.275Z,19.39
2019-04-28T14:37:28.172Z,19.63
2019-04-28T14:39:55.828Z,19.69
2019-04-28T14:42:22.643Z,19.74
2019-04-28T14:44:50.008Z,19.72
2019-04-28T14:47:16.860Z,19.46
2019-04-28T14:49:44.249Z,19.19
2019-04-28T14:52:11.690Z,19.04
2019-04-28T14:54:38.529Z,19.05
2019-04-28T14:57:05.646Z,18.93
2019-04-28T14:59:32.555Z,18.87
2019-04-28T15:02:19.509Z,18.75
2019-04-28T15:05:02.027Z,18.66
2019-04-28T15:07:48.690Z,18.52
2019-04-28T15:10:29.913Z,18.25
2019-04-28T15:12:57.159Z,18.19
2019-04-28T15:15:24.084Z,18.28
2019-04-28T15:17:50.938Z,18.44
2019-04-28T15:20:20.355Z,18.33
2019-04-28T15:22:47.241Z,18.26
2019-04-28T15:25:16.796Z,17.62
2019-04-28T15:27:43.543Z,16.85
2019-04-28T15:30:11.271Z,16.32
2019-04-28T15:32:38.058Z,15.99
2019-04-28T15:35:05.571Z,15.75
2019-04-28T15:37:32.488Z,15.79
2019-04-28T15:40:00.304Z,15.75
2019-04-28T15:42:27.536Z,15.73
2019-04-28T15:44:54.578Z,15.51
2019-04-28T15:47:21.334Z,15.38
2019-04-28T15:49:48.152Z,15.20
2019-04-28T15:52:15.281Z,15.08
2019-04-28T15:54:42.428Z,14.99
2019-04-28T15:57:09.354Z,14.95
2019-04-28T15:59:36.756Z,14.80
2019-04-28T16:02:04.351Z,14.66
2019-04-28T16:04:31.409Z,14.47
2019-04-28T16:06:58.187Z,14.42
2019-04-28T16:09:25.603Z,14.61
2019-04-28T16:11:52.433Z,14.61
2019-04-28T16:14:19.293Z,14.55
2019-04-28T16:16:46.163Z,14.39
2019-04-28T16:19:15.327Z,14.19
2019-04-28T16:21:42.110Z,14.05
2019-04-28T16:24:09.046Z,14.07
2019-04-28T16:26:36.065Z,14.05
2019-04-28T16:29:03.701Z,14.11
2019-04-28T16:31:30.482Z,14.08
2019-04-28T16:33:57.288Z,13.88
2019-04-28T16:36:24.228Z,13.85
2019-04-28T16:38:50.968Z,13.80
2019-04-28T16:41:18.173Z,13.60
2019-04-28T16:43:47.615Z,13.52
2019-04-28T16:46:15.316Z,13.54
2019-04-28T16:48:42.123Z,13.54
2019-04-28T16:51:09.144Z,13.66
2019-04-28T16:53:36.052Z,13.61
2019-04-28T16:56:08.221Z,13.57
2019-04-28T16:58:37.298Z,13.41
2019-04-28T17:01:10.363Z,13.33
2019-04-28T17:03:38.096Z,13.29
2019-04-28T17:06:05.210Z,13.11
2019-04-28T17:08:34.820Z,13.00
2019-04-28T17:11:02.583Z,12.85
2019-04-28T17:13:29.660Z,12.63
2019-04-28T17:15:56.790Z,12.46
2019-04-28T17:18:23.940Z,12.34
2019-04-28T17:20:54.150Z,12.28
2019-04-28T17:23:19.879Z,12.14
2019-04-28T17:25:47.193Z,11.99
2019-04-28T17:28:14.162Z,12.03
2019-04-28T17:30:41.014Z,11.97
2019-04-28T17:33:07.865Z,11.81
2019-04-28T17:35:35.074Z,11.79
2019-04-28T17:38:06.888Z,11.82
2019-04-28T17:40:31.592Z,11.62
2019-04-28T17:42:58.391Z,11.61
2019-04-28T17:45:25.375Z,11.68
2019-04-28T17:47:54.654Z,11.69
2019-04-28T17:50:23.471Z,11.70
2019-04-28T17:52:50.284Z,11.61
2019-04-28T17:55:17.753Z,11.53
2019-04-28T17:57:44.652Z,11.47
2019-04-28T18:00:26.021Z,11.43
2019-04-28T18:03:11.431Z,11.33
2019-04-28T18:05:45.991Z,11.28
2019-04-28T18:08:20.781Z,11.18
2019-04-28T18:10:41.867Z,11.23
2019-04-28T18:13:09.042Z,11.13
2019-04-28T18:15:44.808Z,11.06
2019-04-28T18:18:16.363Z,11.05
2019-04-28T18:20:43.128Z,11.01
2019-04-28T18:23:09.914Z,11.01
2019-04-28T18:25:39.001Z,11.00
2019-04-28T18:28:05.762Z,10.90
2019-04-28T18:30:34.704Z,10.88
2019-04-28T18:33:03.381Z,10.88
2019-04-28T18:35:32.838Z,10.83
2019-04-28T18:38:01.641Z,10.80
2019-04-28T18:40:37.817Z,10.79
2019-04-28T18:43:21.721Z,10.75
2019-04-28T18:45:48.895Z,10.71
2019-04-28T18:48:15.783Z,10.75
2019-04-28T18:50:42.966Z,10.63
2019-04-28T18:53:10.156Z,10.67
2019-04-28T18:55:36.942Z,10.65
2019-04-28T18:58:03.851Z,10.50
2019-04-28T19:00:33.070Z,10.56
2019-04-28T19:02:59.847Z,10.52
2019-04-28T19:05:28.732Z,10.53
2019-04-28T19:07:59.143Z,10.43
2019-04-28T19:10:32.238Z,10.32
2019-04-28T19:13:01.303Z,10.29
2019-04-28T19:15:28.155Z,10.30
2019-04-28T19:17:57.018Z,10.18
2019-04-28T19:20:24.389Z,10.04
2019-04-28T19:22:51.161Z,9.90
2019-04-28T19:25:17.941Z,9.85
2019-04-28T19:27:45.092Z,9.68
2019-04-28T19:30:12.348Z,9.55
2019-04-28T19:32:39.463Z,9.33
2019-04-28T19:35:09.424Z,8.98
2019-04-28T19:37:36.334Z,8.88
2019-04-28T19:40:06.834Z,8.97
2019-04-28T19:42:33.582Z,8.85
2019-04-28T19:45:00.706Z,8.72
2019-04-28T19:47:27.863Z,8.74
2019-04-28T19:49:54.620Z,8.78
2019-04-28T19:52:21.365Z,8.87
2019-04-28T19:55:05.057Z,9.04
2019-04-28T19:57:34.116Z,9.06
2019-04-28T20:00:02.810Z,8.84
2019-04-28T20:02:31.816Z,8.78
2019-04-28T20:04:58.820Z,8.66
2019-04-28T20:07:26.014Z,8.63
2019-04-28T20:09:52.787Z,8.74
2019-04-28T20:12:19.652Z,8.57
2019-04-28T20:14:48.580Z,8.41
2019-04-28T20:17:15.612Z,8.24
2019-04-28T20:19:42.403Z,8.27
2019-04-28T20:22:09.270Z,8.18
2019-04-28T20:24:46.654Z,8.11
2019-04-28T20:27:05.655Z,8.22
2019-04-28T20:29:32.427Z,8.25
2019-04-28T20:32:02.112Z,8.24
2019-04-28T20:34:29.277Z,8.33
2019-04-28T20:37:01.447Z,8.41
2019-04-28T20:39:30.674Z,8.40
2019-04-28T20:41:59.734Z,8.33
2019-04-28T20:44:26.534Z,8.11
2019-04-28T20:46:53.442Z,7.95
2019-04-28T20:49:21.091Z,7.88
2019-04-28T20:51:48.424Z,7.80
2019-04-28T20:54:16.047Z,7.78
2019-04-28T20:56:42.984Z,7.81
2019-04-28T20:59:09.792Z,7.89
2019-04-28T21:01:36.731Z,7.90
2019-04-28T21:04:03.714Z,7.55
2019-04-28T21:06:30.885Z,7.67
2019-04-28T21:08:58.196Z,7.76
2019-04-28T21:11:25.376Z,7.74
2019-04-28T21:13:52.128Z,7.82
2019-04-28T21:16:18.914Z,7.79
2019-04-28T21:18:45.654Z,7.55
2019-04-28T21:21:12.435Z,7.41
2019-04-28T21:23:40.121Z,7.27
2019-04-28T21:26:07.277Z,7.28
2019-04-28T21:28:34.455Z,7.31
2019-04-28T21:31:01.280Z,7.07
2019-04-28T21:33:28.358Z,6.96
2019-04-28T21:35:55.121Z,7.12
2019-04-28T21:38:21.877Z,7.22
2019-04-28T21:40:48.672Z,6.81
2019-04-28T21:43:32.810Z,6.70
2019-04-28T21:46:01.968Z,6.73
2019-04-28T21:48:33.608Z,6.76
2019-04-28T21:51:00.598Z,6.85
2019-04-28T21:53:27.351Z,6.91
2019-04-28T21:55:54.115Z,6.76
2019-04-28T21:58:32.572Z,6.63
2019-04-28T22:00:56.697Z,6.82
2019-04-28T22:03:23.975Z,7.06
2019-04-28T22:05:50.858Z,6.68
2019-04-28T22:08:20.704Z,6.65
2019-04-28T22:10:48.101Z,6.44
2019-04-28T22:13:14.912Z,6.52
2019-04-28T22:15:42.182Z,6.49
2019-04-28T22:18:09.395Z,6.48
2019-04-28T22:20:39.307Z,6.32
2019-04-28T22:23:18.272Z,6.21
2019-04-28T22:25:36.648Z,6.07
2019-04-28T22:28:03.877Z,6.07
2019-04-28T22:30:30.718Z,5.92
2019-04-28T22:32:57.678Z,5.88
2019-04-28T22:35:24.489Z,6.12
2019-04-28T22:37:51.787Z,6.28
2019-04-28T22:40:18.593Z,6.40
2019-04-28T22:42:45.390Z,6.27
2019-04-28T22:45:13.360Z,5.96
2019-04-28T22:47:40.671Z,6.00
2019-04-28T22:50:38.384Z,5.92
2019-04-28T22:53:05.936Z,6.04
2019-04-28T22:55:34.829Z,5.96
2019-04-28T22:58:01.731Z,6.07
2019-04-28T23:00:33.750Z,6.16
2019-04-28T23:03:00.700Z,6.07
2019-04-28T23:05:28.090Z,6.27
2019-04-28T23:07:55.135Z,6.24
2019-04-28T23:10:22.651Z,6.14
2019-04-28T23:12:49.593Z,5.96
2019-04-28T23:15:16.988Z,5.85
2019-04-28T23:17:44.317Z,5.82
2019-04-28T23:20:12.073Z,5.87
2019-04-28T23:22:47.110Z,5.92
2019-04-28T23:25:13.291Z,5.76
2019-04-28T23:27:40.223Z,5.82
2019-04-28T23:30:08.788Z,5.77
2019-04-28T23:32:35.815Z,5.82
2019-04-28T23:35:04.687Z,5.69
2019-04-28T23:37:31.595Z,5.51
2019-04-28T23:39:58.393Z,5.60
2019-04-28T23:42:45.191Z,5.56
2019-04-28T23:45:12.870Z,5.78
2019-04-28T23:47:39.670Z,5.73
2019-04-28T23:50:08.952Z,5.57
2019-04-28T23:52:37.796Z,5.64
2019-04-28T23:55:07.490Z,5.66
2019-04-28T23:57:34.852Z,5.69
